sensor_id;sensor_type;location;lat;lon;timestamp;P1;durP1;ratioP1;P2;durP2;ratioP2
75456;SDS011;64036;48.266;14.192;2022-12-18T00:01:18;41.00;;;19.10;;
75456;SDS011;64036;48.266;14.192;2022-12-18T00:03:45;46.80;;;21.70;;
75456;SDS011;64036;48.266;14.192;2022-12-18T00:06:11;34.40;;;14.70;;
75456;SDS011;64036;48.266;14.192;2022-12-18T00:08:40;37.60;;;19.40;;
75456;SDS011;64036;48.266;14.192;2022-12-18T00:11:08;33.30;;;15.10;;
75456;SDS011;64036;48.266;14.192;2022-12-18T00:13:36;36.80;;;17.30;;
75456;SDS011;64036;48.266;14.192;2022-12-18T00:16:08;47.20;;;20.10;;
75456;SDS011;64036;48.266;14.192;2022-12-18T00:18:35;33.00;;;13.50;;
75456;SDS011;64036;48.266;14.192;2022-12-18T00:21:03;44.00;;;19.00;;
75456;SDS011;64036;48.266;14.192;2022-12-18T00:23:34;34.20;;;15.20;;
75456;SDS011;64036;48.266;14.192;2022-12-18T00:26:07;38.50;;;20.10;;
75456;SDS011;64036;48.266;14.192;2022-12-18T00:28:40;25.20;;;11.80;;
75456;SDS011;64036;48.266;14.192;2022-12-18T00:31:15;44.40;;;19.20;;
75456;SDS011;64036;48.266;14.192;2022-12-18T00:33:43;33.90;;;14.90;;
75456;SDS011;64036;48.266;14.192;2022-12-18T00:36:12;26.40;;;11.80;;
75456;SDS011;64036;48.266;14.192;2022-12-18T00:38:43;25.70;;;11.30;;
75456;SDS011;64036;48.266;14.192;2022-12-18T00:41:11;29.20;;;12.30;;
75456;SDS011;64036;48.266;14.192;2022-12-18T00:43:38;32.60;;;14.60;;
75456;SDS011;64036;48.266;14.192;2022-12-18T00:46:04;29.40;;;12.80;;
75456;SDS011;64036;48.266;14.192;2022-12-18T00:48:31;36.70;;;16.00;;
75456;SDS011;64036;48.266;14.192;2022-12-18T00:50:57;39.70;;;16.80;;
75456;SDS011;64036;48.266;14.192;2022-12-18T00:53:23;30.40;;;16.10;;
75456;SDS011;64036;48.266;14.192;2022-12-18T00:55:49;29.20;;;13.30;;
75456;SDS011;64036;48.266;14.192;2022-12-18T00:58:16;39.90;;;17.80;;
75456;SDS011;64036;48.266;14.192;2022-12-18T01:00:42;45.10;;;18.00;;
75456;SDS011;64036;48.266;14.192;2022-12-18T01:03:13;27.80;;;12.90;;
75456;SDS011;64036;48.266;14.192;2022-12-18T01:05:40;28.10;;;13.50;;
75456;SDS011;64036;48.266;14.192;2022-12-18T01:08:06;27.60;;;11.40;;
75456;SDS011;64036;48.266;14.192;2022-12-18T01:10:32;70.50;;;24.00;;
75456;SDS011;64036;48.266;14.192;2022-12-18T01:12:58;55.80;;;19.40;;
75456;SDS011;64036;48.266;14.192;2022-12-18T01:15:23;52.40;;;18.00;;
75456;SDS011;64036;48.266;14.192;2022-12-18T01:17:52;38.00;;;14.90;;
75456;SDS011;64036;48.266;14.192;2022-12-18T01:20:18;37.00;;;14.40;;
75456;SDS011;64036;48.266;14.192;2022-12-18T01:22:44;46.60;;;17.40;;
75456;SDS011;64036;48.266;14.192;2022-12-18T01:25:09;40.20;;;14.40;;
75456;SDS011;64036;48.266;14.192;2022-12-18T01:27:35;44.20;;;14.90;;
75456;SDS011;64036;48.266;14.192;2022-12-18T01:30:01;43.40;;;14.70;;
75456;SDS011;64036;48.266;14.192;2022-12-18T01:32:30;48.80;;;18.30;;
75456;SDS011;64036;48.266;14.192;2022-12-18T01:34:56;51.10;;;18.00;;
75456;SDS011;64036;48.266;14.192;2022-12-18T01:37:22;56.60;;;21.90;;
75456;SDS011;64036;48.266;14.192;2022-12-18T01:39:48;53.30;;;19.70;;
75456;SDS011;64036;48.266;14.192;2022-12-18T01:42:15;42.70;;;17.40;;
75456;SDS011;64036;48.266;14.192;2022-12-18T01:45:04;47.20;;;16.10;;
75456;SDS011;64036;48.266;14.192;2022-12-18T01:47:45;40.00;;;14.60;;
75456;SDS011;64036;48.266;14.192;2022-12-18T01:50:30;49.40;;;17.60;;
75456;SDS011;64036;48.266;14.192;2022-12-18T01:53:07;30.50;;;12.60;;
75456;SDS011;64036;48.266;14.192;2022-12-18T01:55:50;56.10;;;21.20;;
75456;SDS011;64036;48.266;14.192;2022-12-18T01:58:29;47.90;;;15.50;;
75456;SDS011;64036;48.266;14.192;2022-12-18T02:01:26;38.60;;;13.00;;
75456;SDS011;64036;48.266;14.192;2022-12-18T02:03:55;55.00;;;17.90;;
75456;SDS011;64036;48.266;14.192;2022-12-18T02:09:09;76.20;;;25.90;;
75456;SDS011;64036;48.266;14.192;2022-12-18T02:14:44;50.30;;;16.10;;
75456;SDS011;64036;48.266;14.192;2022-12-18T02:17:22;39.90;;;16.30;;
75456;SDS011;64036;48.266;14.192;2022-12-18T02:22:47;49.50;;;17.60;;
75456;SDS011;64036;48.266;14.192;2022-12-18T02:26:07;39.70;;;13.20;;
75456;SDS011;64036;48.266;14.192;2022-12-18T02:29:18;46.80;;;15.90;;
75456;SDS011;64036;48.266;14.192;2022-12-18T02:31:56;42.20;;;16.10;;
75456;SDS011;64036;48.266;14.192;2022-12-18T02:34:29;41.20;;;14.40;;
75456;SDS011;64036;48.266;14.192;2022-12-18T02:36:57;67.40;;;23.30;;
75456;SDS011;64036;48.266;14.192;2022-12-18T02:39:26;75.70;;;22.70;;
75456;SDS011;64036;48.266;14.192;2022-12-18T02:41:53;58.10;;;19.90;;
75456;SDS011;64036;48.266;14.192;2022-12-18T02:44:18;61.60;;;19.30;;
75456;SDS011;64036;48.266;14.192;2022-12-18T02:46:52;78.10;;;23.20;;
75456;SDS011;64036;48.266;14.192;2022-12-18T02:49:26;40.50;;;13.50;;
75456;SDS011;64036;48.266;14.192;2022-12-18T02:53:04;75.80;;;22.50;;
75456;SDS011;64036;48.266;14.192;2022-12-18T03:01:30;38.00;;;14.10;;
75456;SDS011;64036;48.266;14.192;2022-12-18T03:04:08;60.00;;;21.10;;
75456;SDS011;64036;48.266;14.192;2022-12-18T03:06:49;49.70;;;16.20;;
75456;SDS011;64036;48.266;14.192;2022-12-18T03:09:24;44.40;;;15.00;;
75456;SDS011;64036;48.266;14.192;2022-12-18T03:12:01;65.30;;;19.80;;
75456;SDS011;64036;48.266;14.192;2022-12-18T03:15:03;53.70;;;17.50;;
75456;SDS011;64036;48.266;14.192;2022-12-18T03:17:33;63.20;;;22.40;;
75456;SDS011;64036;48.266;14.192;2022-12-18T03:20:12;90.40;;;26.50;;
75456;SDS011;64036;48.266;14.192;2022-12-18T03:22:45;71.50;;;22.80;;
75456;SDS011;64036;48.266;14.192;2022-12-18T03:25:14;60.10;;;18.70;;
75456;SDS011;64036;48.266;14.192;2022-12-18T03:27:48;64.10;;;21.90;;
75456;SDS011;64036;48.266;14.192;2022-12-18T03:30:16;92.60;;;25.40;;
75456;SDS011;64036;48.266;14.192;2022-12-18T03:32:53;89.90;;;25.00;;
75456;SDS011;64036;48.266;14.192;2022-12-18T03:35:30;73.10;;;22.50;;
75456;SDS011;64036;48.266;14.192;2022-12-18T03:37:58;79.00;;;25.40;;
75456;SDS011;64036;48.266;14.192;2022-12-18T03:40:35;70.40;;;23.10;;
75456;SDS011;64036;48.266;14.192;2022-12-18T03:43:50;67.00;;;21.10;;
75456;SDS011;64036;48.266;14.192;2022-12-18T03:46:27;51.60;;;19.20;;
75456;SDS011;64036;48.266;14.192;2022-12-18T03:49:02;35.80;;;13.00;;
75456;SDS011;64036;48.266;14.192;2022-12-18T03:51:39;39.00;;;15.70;;
75456;SDS011;64036;48.266;14.192;2022-12-18T03:54:09;58.80;;;20.60;;
75456;SDS011;64036;48.266;14.192;2022-12-18T03:56:41;37.00;;;14.70;;
75456;SDS011;64036;48.266;14.192;2022-12-18T03:59:10;49.80;;;16.70;;
75456;SDS011;64036;48.266;14.192;2022-12-18T04:01:41;64.10;;;18.70;;
75456;SDS011;64036;48.266;14.192;2022-12-18T04:04:11;43.60;;;16.40;;
75456;SDS011;64036;48.266;14.192;2022-12-18T04:06:39;64.70;;;20.70;;
75456;SDS011;64036;48.266;14.192;2022-12-18T04:09:06;67.90;;;19.60;;
75456;SDS011;64036;48.266;14.192;2022-12-18T04:11:32;56.20;;;20.20;;
75456;SDS011;64036;48.266;14.192;2022-12-18T04:13:58;47.70;;;15.40;;
75456;SDS011;64036;48.266;14.192;2022-12-18T04:16:28;29.70;;;11.40;;
75456;SDS011;64036;48.266;14.192;2022-12-18T04:18:53;47.30;;;17.10;;
75456;SDS011;64036;48.266;14.192;2022-12-18T04:21:20;27.50;;;9.40;;
75456;SDS011;64036;48.266;14.192;2022-12-18T04:23:46;59.30;;;16.60;;
75456;SDS011;64036;48.266;14.192;2022-12-18T04:26:12;40.30;;;12.60;;
75456;SDS011;64036;48.266;14.192;2022-12-18T04:28:37;56.20;;;16.50;;
75456;SDS011;64036;48.266;14.192;2022-12-18T04:31:03;46.30;;;16.40;;
75456;SDS011;64036;48.266;14.192;2022-12-18T04:33:29;36.30;;;10.10;;
75456;SDS011;64036;48.266;14.192;2022-12-18T04:35:55;29.60;;;11.90;;
75456;SDS011;64036;48.266;14.192;2022-12-18T04:38:21;23.50;;;9.80;;
75456;SDS011;64036;48.266;14.192;2022-12-18T04:40:47;31.10;;;12.80;;
75456;SDS011;64036;48.266;14.192;2022-12-18T04:43:12;26.10;;;9.50;;
75456;SDS011;64036;48.266;14.192;2022-12-18T04:45:38;16.70;;;7.50;;
75456;SDS011;64036;48.266;14.192;2022-12-18T04:48:04;30.00;;;12.00;;
75456;SDS011;64036;48.266;14.192;2022-12-18T04:50:30;27.00;;;12.30;;
75456;SDS011;64036;48.266;14.192;2022-12-18T04:52:56;27.20;;;10.90;;
75456;SDS011;64036;48.266;14.192;2022-12-18T04:55:22;30.20;;;11.20;;
75456;SDS011;64036;48.266;14.192;2022-12-18T04:57:51;24.50;;;9.80;;
75456;SDS011;64036;48.266;14.192;2022-12-18T05:00:16;24.00;;;8.40;;
75456;SDS011;64036;48.266;14.192;2022-12-18T05:02:42;18.20;;;7.70;;
75456;SDS011;64036;48.266;14.192;2022-12-18T05:05:08;29.90;;;12.10;;
75456;SDS011;64036;48.266;14.192;2022-12-18T05:07:34;26.80;;;10.60;;
75456;SDS011;64036;48.266;14.192;2022-12-18T05:09:59;20.80;;;9.50;;
75456;SDS011;64036;48.266;14.192;2022-12-18T05:12:25;28.20;;;10.80;;
75456;SDS011;64036;48.266;14.192;2022-12-18T05:14:51;30.30;;;13.70;;
75456;SDS011;64036;48.266;14.192;2022-12-18T05:17:17;28.50;;;12.20;;
75456;SDS011;64036;48.266;14.192;2022-12-18T05:19:43;21.50;;;7.40;;
75456;SDS011;64036;48.266;14.192;2022-12-18T05:22:09;27.80;;;12.60;;
75456;SDS011;64036;48.266;14.192;2022-12-18T05:24:35;25.60;;;9.90;;
75456;SDS011;64036;48.266;14.192;2022-12-18T05:27:01;21.40;;;9.00;;
75456;SDS011;64036;48.266;14.192;2022-12-18T05:29:26;30.10;;;10.60;;
75456;SDS011;64036;48.266;14.192;2022-12-18T05:31:52;28.70;;;11.00;;
75456;SDS011;64036;48.266;14.192;2022-12-18T05:34:17;20.00;;;7.20;;
75456;SDS011;64036;48.266;14.192;2022-12-18T05:36:43;25.30;;;9.10;;
75456;SDS011;64036;48.266;14.192;2022-12-18T05:39:09;19.20;;;7.70;;
75456;SDS011;64036;48.266;14.192;2022-12-18T05:41:35;17.90;;;7.80;;
75456;SDS011;64036;48.266;14.192;2022-12-18T05:44:00;26.20;;;10.60;;
75456;SDS011;64036;48.266;14.192;2022-12-18T05:46:26;17.30;;;7.30;;
75456;SDS011;64036;48.266;14.192;2022-12-18T05:48:52;11.50;;;5.30;;
75456;SDS011;64036;48.266;14.192;2022-12-18T05:51:19;20.30;;;7.90;;
75456;SDS011;64036;48.266;14.192;2022-12-18T05:53:46;27.30;;;10.10;;
75456;SDS011;64036;48.266;14.192;2022-12-18T05:56:15;18.80;;;7.30;;
75456;SDS011;64036;48.266;14.192;2022-12-18T05:58:43;21.00;;;8.20;;
75456;SDS011;64036;48.266;14.192;2022-12-18T06:03:38;22.00;;;9.20;;
75456;SDS011;64036;48.266;14.192;2022-12-18T06:06:11;20.90;;;7.30;;
75456;SDS011;64036;48.266;14.192;2022-12-18T06:08:48;13.90;;;6.50;;
75456;SDS011;64036;48.266;14.192;2022-12-18T06:11:17;14.70;;;6.20;;
75456;SDS011;64036;48.266;14.192;2022-12-18T06:13:50;24.40;;;9.70;;
75456;SDS011;64036;48.266;14.192;2022-12-18T06:16:17;26.30;;;10.10;;
75456;SDS011;64036;48.266;14.192;2022-12-18T06:18:43;19.00;;;6.90;;
75456;SDS011;64036;48.266;14.192;2022-12-18T06:21:08;21.60;;;8.60;;
75456;SDS011;64036;48.266;14.192;2022-12-18T06:23:34;20.70;;;8.30;;
75456;SDS011;64036;48.266;14.192;2022-12-18T06:26:19;18.10;;;8.20;;
75456;SDS011;64036;48.266;14.192;2022-12-18T06:28:45;17.50;;;6.20;;
75456;SDS011;64036;48.266;14.192;2022-12-18T06:31:11;27.50;;;8.60;;
75456;SDS011;64036;48.266;14.192;2022-12-18T06:33:37;16.00;;;5.80;;
75456;SDS011;64036;48.266;14.192;2022-12-18T06:36:11;15.40;;;5.90;;
75456;SDS011;64036;48.266;14.192;2022-12-18T06:38:40;14.10;;;5.10;;
75456;SDS011;64036;48.266;14.192;2022-12-18T06:41:15;17.30;;;7.90;;
75456;SDS011;64036;48.266;14.192;2022-12-18T06:43:42;23.80;;;9.50;;
75456;SDS011;64036;48.266;14.192;2022-12-18T06:46:08;20.40;;;8.90;;
75456;SDS011;64036;48.266;14.192;2022-12-18T06:48:34;15.40;;;6.60;;
75456;SDS011;64036;48.266;14.192;2022-12-18T06:51:00;16.50;;;7.30;;
75456;SDS011;64036;48.266;14.192;2022-12-18T06:53:26;16.60;;;6.10;;
75456;SDS011;64036;48.266;14.192;2022-12-18T06:55:51;20.60;;;7.40;;
75456;SDS011;64036;48.266;14.192;2022-12-18T06:58:17;17.30;;;5.40;;
75456;SDS011;64036;48.266;14.192;2022-12-18T07:00:43;15.50;;;5.10;;
75456;SDS011;64036;48.266;14.192;2022-12-18T07:03:09;18.10;;;5.60;;
75456;SDS011;64036;48.266;14.192;2022-12-18T07:05:40;21.80;;;9.70;;
75456;SDS011;64036;48.266;14.192;2022-12-18T07:08:06;21.50;;;8.20;;
75456;SDS011;64036;48.266;14.192;2022-12-18T07:10:31;17.60;;;7.30;;
75456;SDS011;64036;48.266;14.192;2022-12-18T07:12:57;19.20;;;8.10;;
75456;SDS011;64036;48.266;14.192;2022-12-18T07:15:22;19.00;;;7.90;;
75456;SDS011;64036;48.266;14.192;2022-12-18T07:17:48;21.60;;;10.10;;
75456;SDS011;64036;48.266;14.192;2022-12-18T07:20:13;22.10;;;9.50;;
75456;SDS011;64036;48.266;14.192;2022-12-18T07:22:39;16.80;;;8.00;;
75456;SDS011;64036;48.266;14.192;2022-12-18T07:25:05;26.80;;;10.30;;
75456;SDS011;64036;48.266;14.192;2022-12-18T07:27:31;23.50;;;9.20;;
75456;SDS011;64036;48.266;14.192;2022-12-18T07:29:56;18.70;;;9.00;;
75456;SDS011;64036;48.266;14.192;2022-12-18T07:32:22;18.70;;;7.50;;
75456;SDS011;64036;48.266;14.192;2022-12-18T07:34:47;20.50;;;8.80;;
75456;SDS011;64036;48.266;14.192;2022-12-18T07:37:13;18.30;;;8.90;;
75456;SDS011;64036;48.266;14.192;2022-12-18T07:39:39;19.60;;;9.90;;
75456;SDS011;64036;48.266;14.192;2022-12-18T07:42:04;18.00;;;9.30;;
75456;SDS011;64036;48.266;14.192;2022-12-18T07:44:48;21.30;;;9.20;;
75456;SDS011;64036;48.266;14.192;2022-12-18T07:47:14;19.90;;;10.10;;
75456;SDS011;64036;48.266;14.192;2022-12-18T07:49:39;16.20;;;8.70;;
75456;SDS011;64036;48.266;14.192;2022-12-18T07:52:05;17.10;;;8.90;;
75456;SDS011;64036;48.266;14.192;2022-12-18T07:54:30;18.00;;;9.20;;
75456;SDS011;64036;48.266;14.192;2022-12-18T07:56:56;17.20;;;8.50;;
75456;SDS011;64036;48.266;14.192;2022-12-18T07:59:22;15.60;;;8.40;;
75456;SDS011;64036;48.266;14.192;2022-12-18T08:01:47;14.50;;;7.80;;
75456;SDS011;64036;48.266;14.192;2022-12-18T08:04:13;13.40;;;8.20;;
75456;SDS011;64036;48.266;14.192;2022-12-18T08:06:38;14.90;;;9.00;;
75456;SDS011;64036;48.266;14.192;2022-12-18T08:09:04;15.30;;;8.20;;
75456;SDS011;64036;48.266;14.192;2022-12-18T08:11:29;14.50;;;7.90;;
75456;SDS011;64036;48.266;14.192;2022-12-18T08:13:55;14.40;;;8.10;;
75456;SDS011;64036;48.266;14.192;2022-12-18T08:16:23;12.30;;;7.40;;
75456;SDS011;64036;48.266;14.192;2022-12-18T08:18:49;12.70;;;7.30;;
75456;SDS011;64036;48.266;14.192;2022-12-18T08:21:22;12.60;;;6.70;;
75456;SDS011;64036;48.266;14.192;2022-12-18T08:23:51;14.60;;;7.10;;
75456;SDS011;64036;48.266;14.192;2022-12-18T08:26:18;11.40;;;5.90;;
75456;SDS011;64036;48.266;14.192;2022-12-18T08:28:44;14.00;;;7.80;;
75456;SDS011;64036;48.266;14.192;2022-12-18T08:31:10;13.70;;;6.80;;
75456;SDS011;64036;48.266;14.192;2022-12-18T08:33:41;12.10;;;6.90;;
75456;SDS011;64036;48.266;14.192;2022-12-18T08:36:08;12.20;;;6.80;;
75456;SDS011;64036;48.266;14.192;2022-12-18T08:38:34;15.70;;;7.90;;
75456;SDS011;64036;48.266;14.192;2022-12-18T08:41:06;16.10;;;8.70;;
75456;SDS011;64036;48.266;14.192;2022-12-18T08:43:37;15.30;;;7.70;;
75456;SDS011;64036;48.266;14.192;2022-12-18T08:46:38;13.20;;;6.50;;
75456;SDS011;64036;48.266;14.192;2022-12-18T08:49:05;17.70;;;8.60;;
75456;SDS011;64036;48.266;14.192;2022-12-18T08:51:33;14.60;;;7.60;;
75456;SDS011;64036;48.266;14.192;2022-12-18T08:53:59;13.90;;;7.20;;
75456;SDS011;64036;48.266;14.192;2022-12-18T08:56:25;16.70;;;8.20;;
75456;SDS011;64036;48.266;14.192;2022-12-18T08:58:54;16.00;;;8.30;;
75456;SDS011;64036;48.266;14.192;2022-12-18T09:01:21;14.30;;;7.70;;
75456;SDS011;64036;48.266;14.192;2022-12-18T09:03:48;14.40;;;7.50;;
75456;SDS011;64036;48.266;14.192;2022-12-18T09:06:16;13.10;;;7.60;;
75456;SDS011;64036;48.266;14.192;2022-12-18T09:08:46;16.20;;;8.40;;
75456;SDS011;64036;48.266;14.192;2022-12-18T09:11:14;16.50;;;9.30;;
75456;SDS011;64036;48.266;14.192;2022-12-18T09:13:48;16.70;;;9.10;;
75456;SDS011;64036;48.266;14.192;2022-12-18T09:16:15;15.20;;;8.90;;
75456;SDS011;64036;48.266;14.192;2022-12-18T09:18:41;18.00;;;9.70;;
75456;SDS011;64036;48.266;14.192;2022-12-18T09:21:11;13.90;;;7.80;;
75456;SDS011;64036;48.266;14.192;2022-12-18T09:23:39;13.10;;;7.80;;
75456;SDS011;64036;48.266;14.192;2022-12-18T09:26:05;11.40;;;7.10;;
75456;SDS011;64036;48.266;14.192;2022-12-18T09:28:30;13.60;;;8.10;;
75456;SDS011;64036;48.266;14.192;2022-12-18T09:30:56;14.50;;;7.60;;
75456;SDS011;64036;48.266;14.192;2022-12-18T09:33:22;14.10;;;7.50;;
75456;SDS011;64036;48.266;14.192;2022-12-18T09:35:47;11.60;;;7.40;;
75456;SDS011;64036;48.266;14.192;2022-12-18T09:38:18;12.10;;;7.60;;
75456;SDS011;64036;48.266;14.192;2022-12-18T09:40:47;12.00;;;6.80;;
75456;SDS011;64036;48.266;14.192;2022-12-18T09:43:43;11.30;;;6.20;;
75456;SDS011;64036;48.266;14.192;2022-12-18T09:46:30;11.40;;;6.80;;
75456;SDS011;64036;48.266;14.192;2022-12-18T09:49:01;13.30;;;6.50;;
75456;SDS011;64036;48.266;14.192;2022-12-18T09:51:37;12.60;;;6.80;;
75456;SDS011;64036;48.266;14.192;2022-12-18T09:54:12;12.80;;;7.20;;
75456;SDS011;64036;48.266;14.192;2022-12-18T09:56:42;10.20;;;5.30;;
75456;SDS011;64036;48.266;14.192;2022-12-18T09:59:25;13.30;;;7.40;;
75456;SDS011;64036;48.266;14.192;2022-12-18T10:01:52;13.40;;;7.30;;
75456;SDS011;64036;48.266;14.192;2022-12-18T10:04:18;16.40;;;8.80;;
75456;SDS011;64036;48.266;14.192;2022-12-18T10:07:03;14.90;;;8.50;;
75456;SDS011;64036;48.266;14.192;2022-12-18T10:09:49;16.30;;;9.20;;
75456;SDS011;64036;48.266;14.192;2022-12-18T10:15:51;17.70;;;10.10;;
75456;SDS011;64036;48.266;14.192;2022-12-18T10:21:18;15.50;;;8.80;;
75456;SDS011;64036;48.266;14.192;2022-12-18T10:28:54;16.70;;;8.70;;
75456;SDS011;64036;48.266;14.192;2022-12-18T10:31:23;15.10;;;8.10;;
75456;SDS011;64036;48.266;14.192;2022-12-18T10:33:49;20.00;;;9.10;;
75456;SDS011;64036;48.266;14.192;2022-12-18T10:36:15;16.40;;;9.20;;
75456;SDS011;64036;48.266;14.192;2022-12-18T10:38:41;18.60;;;9.60;;
75456;SDS011;64036;48.266;14.192;2022-12-18T10:41:24;15.50;;;8.50;;
75456;SDS011;64036;48.266;14.192;2022-12-18T10:44:15;17.60;;;8.70;;
75456;SDS011;64036;48.266;14.192;2022-12-18T10:46:44;14.80;;;8.30;;
75456;SDS011;64036;48.266;14.192;2022-12-18T10:49:29;20.40;;;9.90;;
75456;SDS011;64036;48.266;14.192;2022-12-18T10:52:22;14.70;;;7.70;;
75456;SDS011;64036;48.266;14.192;2022-12-18T10:54:59;14.80;;;7.50;;
75456;SDS011;64036;48.266;14.192;2022-12-18T10:57:34;14.10;;;7.20;;
75456;SDS011;64036;48.266;14.192;2022-12-18T11:00:28;19.40;;;8.50;;
75456;SDS011;64036;48.266;14.192;2022-12-18T11:02:56;13.40;;;6.80;;
75456;SDS011;64036;48.266;14.192;2022-12-18T11:05:33;15.90;;;8.20;;
75456;SDS011;64036;48.266;14.192;2022-12-18T11:08:02;15.30;;;8.00;;
75456;SDS011;64036;48.266;14.192;2022-12-18T11:10:33;14.30;;;7.50;;
75456;SDS011;64036;48.266;14.192;2022-12-18T11:13:15;13.40;;;7.10;;
75456;SDS011;64036;48.266;14.192;2022-12-18T11:15:43;14.40;;;7.80;;
75456;SDS011;64036;48.266;14.192;2022-12-18T11:18:19;13.30;;;6.70;;
75456;SDS011;64036;48.266;14.192;2022-12-18T11:20:54;13.00;;;6.40;;
75456;SDS011;64036;48.266;14.192;2022-12-18T11:23:23;12.20;;;6.70;;
75456;SDS011;64036;48.266;14.192;2022-12-18T11:25:55;13.10;;;6.80;;
75456;SDS011;64036;48.266;14.192;2022-12-18T11:34:05;11.90;;;6.10;;
75456;SDS011;64036;48.266;14.192;2022-12-18T11:36:42;10.30;;;5.50;;
75456;SDS011;64036;48.266;14.192;2022-12-18T11:41:52;11.00;;;5.30;;
75456;SDS011;64036;48.266;14.192;2022-12-18T11:47:40;10.80;;;5.90;;
75456;SDS011;64036;48.266;14.192;2022-12-18T11:50:16;13.10;;;7.10;;
75456;SDS011;64036;48.266;14.192;2022-12-18T11:52:50;11.60;;;6.90;;
75456;SDS011;64036;48.266;14.192;2022-12-18T11:58:50;11.40;;;6.00;;
75456;SDS011;64036;48.266;14.192;2022-12-18T12:07:36;13.70;;;7.60;;
75456;SDS011;64036;48.266;14.192;2022-12-18T12:10:30;15.70;;;8.00;;
75456;SDS011;64036;48.266;14.192;2022-12-18T12:25:02;12.70;;;5.50;;
75456;SDS011;64036;48.266;14.192;2022-12-18T12:28:09;18.50;;;9.20;;
75456;SDS011;64036;48.266;14.192;2022-12-18T12:39:39;17.90;;;9.30;;
75456;SDS011;64036;48.266;14.192;2022-12-18T12:42:13;18.80;;;10.10;;
75456;SDS011;64036;48.266;14.192;2022-12-18T12:45:05;15.40;;;8.90;;
75456;SDS011;64036;48.266;14.192;2022-12-18T12:47:36;14.80;;;7.60;;
75456;SDS011;64036;48.266;14.192;2022-12-18T12:52:44;13.10;;;7.70;;
75456;SDS011;64036;48.266;14.192;2022-12-18T12:55:23;21.10;;;9.10;;
75456;SDS011;64036;48.266;14.192;2022-12-18T12:58:06;17.30;;;8.60;;
75456;SDS011;64036;48.266;14.192;2022-12-18T13:00:59;17.90;;;9.60;;
75456;SDS011;64036;48.266;14.192;2022-12-18T13:08:59;18.00;;;9.10;;
75456;SDS011;64036;48.266;14.192;2022-12-18T13:11:46;18.80;;;9.40;;
75456;SDS011;64036;48.266;14.192;2022-12-18T13:14:34;19.50;;;10.50;;
75456;SDS011;64036;48.266;14.192;2022-12-18T13:20:08;18.20;;;8.50;;
75456;SDS011;64036;48.266;14.192;2022-12-18T13:22:35;17.10;;;8.80;;
75456;SDS011;64036;48.266;14.192;2022-12-18T13:25:01;20.50;;;11.00;;
75456;SDS011;64036;48.266;14.192;2022-12-18T13:44:19;16.70;;;9.40;;
75456;SDS011;64036;48.266;14.192;2022-12-18T13:46:53;18.30;;;10.20;;
75456;SDS011;64036;48.266;14.192;2022-12-18T13:49:39;20.90;;;9.70;;
75456;SDS011;64036;48.266;14.192;2022-12-18T13:52:22;16.10;;;8.50;;
75456;SDS011;64036;48.266;14.192;2022-12-18T13:54:53;16.10;;;8.40;;
75456;SDS011;64036;48.266;14.192;2022-12-18T13:57:35;23.80;;;10.90;;
75456;SDS011;64036;48.266;14.192;2022-12-18T14:00:32;22.30;;;10.80;;
75456;SDS011;64036;48.266;14.192;2022-12-18T14:05:34;20.80;;;9.80;;
75456;SDS011;64036;48.266;14.192;2022-12-18T14:08:08;13.80;;;7.50;;
75456;SDS011;64036;48.266;14.192;2022-12-18T14:10:41;17.00;;;9.00;;
75456;SDS011;64036;48.266;14.192;2022-12-18T14:13:16;20.90;;;9.10;;
75456;SDS011;64036;48.266;14.192;2022-12-18T14:15:47;24.00;;;11.10;;
75456;SDS011;64036;48.266;14.192;2022-12-18T14:18:21;23.50;;;12.40;;
75456;SDS011;64036;48.266;14.192;2022-12-18T14:20:49;19.10;;;9.00;;
75456;SDS011;64036;48.266;14.192;2022-12-18T14:23:33;16.90;;;9.20;;
75456;SDS011;64036;48.266;14.192;2022-12-18T14:26:39;18.90;;;11.10;;
75456;SDS011;64036;48.266;14.192;2022-12-18T14:29:28;19.70;;;11.30;;
75456;SDS011;64036;48.266;14.192;2022-12-18T14:32:13;29.20;;;9.70;;
75456;SDS011;64036;48.266;14.192;2022-12-18T14:34:50;17.80;;;9.50;;
75456;SDS011;64036;48.266;14.192;2022-12-18T14:37:21;25.80;;;12.90;;
75456;SDS011;64036;48.266;14.192;2022-12-18T14:39:57;19.50;;;10.70;;
75456;SDS011;64036;48.266;14.192;2022-12-18T14:42:25;24.30;;;11.20;;
75456;SDS011;64036;48.266;14.192;2022-12-18T14:47:59;18.50;;;10.40;;
75456;SDS011;64036;48.266;14.192;2022-12-18T14:50:25;22.10;;;10.80;;
75456;SDS011;64036;48.266;14.192;2022-12-18T14:52:51;17.40;;;8.90;;
75456;SDS011;64036;48.266;14.192;2022-12-18T14:55:18;20.10;;;7.80;;
75456;SDS011;64036;48.266;14.192;2022-12-18T14:57:45;27.20;;;11.70;;
75456;SDS011;64036;48.266;14.192;2022-12-18T15:00:18;18.30;;;8.60;;
75456;SDS011;64036;48.266;14.192;2022-12-18T15:02:55;20.00;;;10.10;;
75456;SDS011;64036;48.266;14.192;2022-12-18T15:05:27;17.10;;;8.30;;
75456;SDS011;64036;48.266;14.192;2022-12-18T15:07:57;19.10;;;10.50;;
75456;SDS011;64036;48.266;14.192;2022-12-18T15:20:52;21.40;;;9.80;;
75456;SDS011;64036;48.266;14.192;2022-12-18T15:23:24;15.40;;;7.10;;
75456;SDS011;64036;48.266;14.192;2022-12-18T15:25:57;12.20;;;7.00;;
75456;SDS011;64036;48.266;14.192;2022-12-18T15:28:36;15.80;;;7.30;;
75456;SDS011;64036;48.266;14.192;2022-12-18T15:33:46;24.10;;;12.40;;
75456;SDS011;64036;48.266;14.192;2022-12-18T15:36:28;20.20;;;9.60;;
75456;SDS011;64036;48.266;14.192;2022-12-18T15:38:55;21.80;;;10.90;;
75456;SDS011;64036;48.266;14.192;2022-12-18T15:41:23;19.90;;;8.90;;
75456;SDS011;64036;48.266;14.192;2022-12-18T15:43:51;19.30;;;9.50;;
75456;SDS011;64036;48.266;14.192;2022-12-18T15:46:23;21.50;;;10.30;;
75456;SDS011;64036;48.266;14.192;2022-12-18T15:48:51;19.10;;;8.80;;
75456;SDS011;64036;48.266;14.192;2022-12-18T15:51:35;16.50;;;8.80;;
75456;SDS011;64036;48.266;14.192;2022-12-18T15:54:03;17.00;;;8.60;;
75456;SDS011;64036;48.266;14.192;2022-12-18T15:56:31;15.00;;;8.00;;
75456;SDS011;64036;48.266;14.192;2022-12-18T15:59:17;17.00;;;7.70;;
75456;SDS011;64036;48.266;14.192;2022-12-18T16:01:47;18.90;;;8.00;;
75456;SDS011;64036;48.266;14.192;2022-12-18T16:04:16;13.80;;;6.30;;
75456;SDS011;64036;48.266;14.192;2022-12-18T16:06:45;19.20;;;9.50;;
75456;SDS011;64036;48.266;14.192;2022-12-18T16:09:11;21.30;;;10.20;;
75456;SDS011;64036;48.266;14.192;2022-12-18T16:11:39;25.10;;;11.40;;
75456;SDS011;64036;48.266;14.192;2022-12-18T16:14:19;18.60;;;9.10;;
75456;SDS011;64036;48.266;14.192;2022-12-18T16:19:17;19.00;;;8.50;;
75456;SDS011;64036;48.266;14.192;2022-12-18T16:21:46;18.40;;;8.70;;
75456;SDS011;64036;48.266;14.192;2022-12-18T16:24:19;19.10;;;8.80;;
75456;SDS011;64036;48.266;14.192;2022-12-18T16:26:56;17.70;;;8.50;;
75456;SDS011;64036;48.266;14.192;2022-12-18T16:31:53;22.60;;;10.70;;
75456;SDS011;64036;48.266;14.192;2022-12-18T16:34:31;19.20;;;9.30;;
75456;SDS011;64036;48.266;14.192;2022-12-18T16:37:01;18.90;;;8.40;;
75456;SDS011;64036;48.266;14.192;2022-12-18T16:39:28;20.60;;;9.30;;
75456;SDS011;64036;48.266;14.192;2022-12-18T16:41:55;23.20;;;10.40;;
75456;SDS011;64036;48.266;14.192;2022-12-18T16:44:21;17.70;;;8.60;;